sensor_id;sensor_type;location;lat;lon;timestamp;pressure;altitude;pressure_sealevel;temperature;humidity
31483;BME280;18103;52.246;8.052;2023-02-26T00:02:15;100479.91;;;-0.15;81.46
31483;BME280;18103;52.246;8.052;2023-02-26T00:04:40;100484.03;;;-0.08;80.94
31483;BME280;18103;52.246;8.052;2023-02-26T00:07:06;100491.88;;;-0.11;80.94
31483;BME280;18103;52.246;8.052;2023-02-26T00:09:31;100495.47;;;-0.15;80.83
31483;BME280;18103;52.246;8.052;2023-02-26T00:11:58;100493.53;;;-0.09;80.62
31483;BME280;18103;52.246;8.052;2023-02-26T00:14:24;100496.38;;;-0.16;80.70
31483;BME280;18103;52.246;8.052;2023-02-26T00:17:21;100500.63;;;-0.14;80.67
31483;BME280;18103;52.246;8.052;2023-02-26T00:19:41;100500.81;;;-0.20;81.30
31483;BME280;18103;52.246;8.052;2023-02-26T00:22:07;100509.34;;;-0.16;80.96
31483;BME280;18103;52.246;8.052;2023-02-26T00:24:32;100510.91;;;-0.11;80.28
31483;BME280;18103;52.246;8.052;2023-02-26T00:26:58;100508.59;;;-0.20;80.40
31483;BME280;18103;52.246;8.052;2023-02-26T00:29:24;100504.16;;;-0.16;79.80
31483;BME280;18103;52.246;8.052;2023-02-26T00:31:50;100515.63;;;-0.24;80.27
31483;BME280;18103;52.246;8.052;2023-02-26T00:34:16;100517.41;;;-0.26;80.16
31483;BME280;18103;52.246;8.052;2023-02-26T00:36:46;100521.13;;;-0.35;80.39
31483;BME280;18103;52.246;8.052;2023-02-26T00:41:49;100527.22;;;-0.36;80.54
31483;BME280;18103;52.246;8.052;2023-02-26T00:44:14;100525.81;;;-0.46;80.94
31483;BME280;18103;52.246;8.052;2023-02-26T00:46:47;100524.63;;;-0.36;80.24
31483;BME280;18103;52.246;8.052;2023-02-26T00:52:14;100542.16;;;-0.44;80.70
31483;BME280;18103;52.246;8.052;2023-02-26T00:54:43;100527.47;;;-0.45;80.86
31483;BME280;18103;52.246;8.052;2023-02-26T00:57:08;100542.09;;;-0.42;80.85
31483;BME280;18103;52.246;8.052;2023-02-26T00:59:33;100535.16;;;-0.40;80.30
31483;BME280;18103;52.246;8.052;2023-02-26T01:01:59;100537.00;;;-0.45;79.72
31483;BME280;18103;52.246;8.052;2023-02-26T01:04:24;100536.28;;;-0.49;80.16
31483;BME280;18103;52.246;8.052;2023-02-26T01:06:53;100537.22;;;-0.52;80.61
31483;BME280;18103;52.246;8.052;2023-02-26T01:09:29;100547.38;;;-0.45;79.93
31483;BME280;18103;52.246;8.052;2023-02-26T01:11:58;100545.50;;;-0.40;79.55
31483;BME280;18103;52.246;8.052;2023-02-26T01:14:28;100545.69;;;-0.46;79.62
31483;BME280;18103;52.246;8.052;2023-02-26T01:19:51;100551.41;;;-0.65;80.68
31483;BME280;18103;52.246;8.052;2023-02-26T01:25:09;100562.59;;;-0.63;80.89
31483;BME280;18103;52.246;8.052;2023-02-26T01:27:35;100556.53;;;-0.63;81.27
31483;BME280;18103;52.246;8.052;2023-02-26T01:30:02;100554.41;;;-0.49;79.67
31483;BME280;18103;52.246;8.052;2023-02-26T01:32:48;100567.50;;;-0.54;79.94
31483;BME280;18103;52.246;8.052;2023-02-26T01:35:44;100565.97;;;-0.61;80.69
31483;BME280;18103;52.246;8.052;2023-02-26T01:38:29;100572.09;;;-0.63;80.54
31483;BME280;18103;52.246;8.052;2023-02-26T01:49:16;100573.13;;;-0.69;80.30
31483;BME280;18103;52.246;8.052;2023-02-26T01:54:15;100581.16;;;-0.78;81.42
31483;BME280;18103;52.246;8.052;2023-02-26T01:56:41;100582.06;;;-0.79;81.03
31483;BME280;18103;52.246;8.052;2023-02-26T01:59:10;100578.44;;;-0.74;80.35
31483;BME280;18103;52.246;8.052;2023-02-26T02:01:39;100577.56;;;-0.73;80.88
31483;BME280;18103;52.246;8.052;2023-02-26T02:04:09;100590.53;;;-0.74;80.77
31483;BME280;18103;52.246;8.052;2023-02-26T02:06:37;100583.72;;;-0.77;80.75
31483;BME280;18103;52.246;8.052;2023-02-26T02:09:05;100586.47;;;-0.83;80.94
31483;BME280;18103;52.246;8.052;2023-02-26T02:11:31;100587.19;;;-0.78;80.45
31483;BME280;18103;52.246;8.052;2023-02-26T02:16:47;100605.47;;;-0.82;80.20
31483;BME280;18103;52.246;8.052;2023-02-26T02:27:29;100605.88;;;-0.98;80.65
31483;BME280;18103;52.246;8.052;2023-02-26T02:33:14;100617.91;;;-0.97;80.72
31483;BME280;18103;52.246;8.052;2023-02-26T02:35:45;100616.81;;;-0.87;80.20
31483;BME280;18103;52.246;8.052;2023-02-26T02:38:27;100619.53;;;-0.93;80.02
31483;BME280;18103;52.246;8.052;2023-02-26T02:41:06;100621.22;;;-0.90;79.53
31483;BME280;18103;52.246;8.052;2023-02-26T02:43:33;100633.38;;;-0.92;78.92
31483;BME280;18103;52.246;8.052;2023-02-26T02:46:12;100640.31;;;-0.94;79.98
31483;BME280;18103;52.246;8.052;2023-02-26T02:49:01;100645.31;;;-0.87;79.20
31483;BME280;18103;52.246;8.052;2023-02-26T02:51:35;100645.63;;;-0.99;79.51
31483;BME280;18103;52.246;8.052;2023-02-26T02:54:10;100644.78;;;-1.01;79.35
31483;BME280;18103;52.246;8.052;2023-02-26T02:56:42;100648.16;;;-0.97;79.40
31483;BME280;18103;52.246;8.052;2023-02-26T03:02:00;100646.78;;;-1.11;80.10
31483;BME280;18103;52.246;8.052;2023-02-26T03:04:28;100649.34;;;-1.11;79.64
31483;BME280;18103;52.246;8.052;2023-02-26T03:06:53;100653.44;;;-1.00;78.68
31483;BME280;18103;52.246;8.052;2023-02-26T03:09:19;100650.06;;;-1.04;78.99
31483;BME280;18103;52.246;8.052;2023-02-26T03:11:44;100659.00;;;-1.16;79.60
31483;BME280;18103;52.246;8.052;2023-02-26T03:14:10;100662.25;;;-1.08;78.95
31483;BME280;18103;52.246;8.052;2023-02-26T03:16:55;100663.06;;;-1.06;79.09
31483;BME280;18103;52.246;8.052;2023-02-26T03:22:21;100672.50;;;-1.03;79.36
31483;BME280;18103;52.246;8.052;2023-02-26T03:27:25;100680.56;;;-1.15;79.26
31483;BME280;18103;52.246;8.052;2023-02-26T03:29:55;100678.81;;;-1.15;79.27
31483;BME280;18103;52.246;8.052;2023-02-26T03:35:17;100701.16;;;-1.11;79.53
31483;BME280;18103;52.246;8.052;2023-02-26T03:37:49;100698.75;;;-1.17;79.46
31483;BME280;18103;52.246;8.052;2023-02-26T03:40:25;100703.25;;;-1.25;79.48
31483;BME280;18103;52.246;8.052;2023-02-26T03:42:56;100717.88;;;-1.23;79.45
31483;BME280;18103;52.246;8.052;2023-02-26T03:45:30;100713.69;;;-1.28;79.58
31483;BME280;18103;52.246;8.052;2023-02-26T03:47:58;100719.63;;;-1.23;79.16
31483;BME280;18103;52.246;8.052;2023-02-26T03:50:26;100728.38;;;-1.30;79.55
31483;BME280;18103;52.246;8.052;2023-02-26T03:52:52;100729.34;;;-1.33;80.04
31483;BME280;18103;52.246;8.052;2023-02-26T03:55:23;100733.59;;;-1.32;80.28
31483;BME280;18103;52.246;8.052;2023-02-26T03:57:50;100738.03;;;-1.35;80.31
31483;BME280;18103;52.246;8.052;2023-02-26T04:00:16;100732.75;;;-1.32;79.77
31483;BME280;18103;52.246;8.052;2023-02-26T04:05:18;100742.28;;;-1.33;79.73
31483;BME280;18103;52.246;8.052;2023-02-26T04:07:45;100744.63;;;-1.24;79.74
31483;BME280;18103;52.246;8.052;2023-02-26T04:10:24;100741.53;;;-1.38;79.94
31483;BME280;18103;52.246;8.052;2023-02-26T04:12:53;100749.38;;;-1.41;80.18
31483;BME280;18103;52.246;8.052;2023-02-26T04:15:18;100746.75;;;-1.40;80.40
31483;BME280;18103;52.246;8.052;2023-02-26T04:17:43;100749.50;;;-1.47;80.31
31483;BME280;18103;52.246;8.052;2023-02-26T04:20:09;100754.59;;;-1.43;80.49
31483;BME280;18103;52.246;8.052;2023-02-26T04:22:35;100762.44;;;-1.47;79.91
31483;BME280;18103;52.246;8.052;2023-02-26T04:25:01;100758.97;;;-1.46;80.40
31483;BME280;18103;52.246;8.052;2023-02-26T04:27:27;100764.81;;;-1.38;79.39
31483;BME280;18103;52.246;8.052;2023-02-26T04:29:52;100760.75;;;-1.50;80.50
31483;BME280;18103;52.246;8.052;2023-02-26T04:32:17;100766.78;;;-1.48;80.33
31483;BME280;18103;52.246;8.052;2023-02-26T04:34:43;100770.41;;;-1.58;81.08
31483;BME280;18103;52.246;8.052;2023-02-26T04:37:08;100768.56;;;-1.51;80.69
31483;BME280;18103;52.246;8.052;2023-02-26T04:39:35;100772.97;;;-1.55;80.53
31483;BME280;18103;52.246;8.052;2023-02-26T04:42:00;100778.84;;;-1.48;79.81
31483;BME280;18103;52.246;8.052;2023-02-26T04:44:27;100786.75;;;-1.55;80.43
31483;BME280;18103;52.246;8.052;2023-02-26T04:46:52;100785.88;;;-1.53;79.76
31483;BME280;18103;52.246;8.052;2023-02-26T04:49:17;100792.81;;;-1.56;80.20
31483;BME280;18103;52.246;8.052;2023-02-26T04:51:43;100788.28;;;-1.46;79.88
31483;BME280;18103;52.246;8.052;2023-02-26T04:54:08;100787.66;;;-1.57;79.62
31483;BME280;18103;52.246;8.052;2023-02-26T04:56:34;100797.97;;;-1.56;79.70
31483;BME280;18103;52.246;8.052;2023-02-26T04:58:59;100803.13;;;-1.54;80.15
31483;BME280;18103;52.246;8.052;2023-02-26T05:01:25;100797.38;;;-1.68;80.56
31483;BME280;18103;52.246;8.052;2023-02-26T05:03:50;100808.41;;;-1.59;80.25
31483;BME280;18103;52.246;8.052;2023-02-26T05:06:16;100804.25;;;-1.66;80.30
31483;BME280;18103;52.246;8.052;2023-02-26T05:08:41;100810.44;;;-1.73;80.85
31483;BME280;18103;52.246;8.052;2023-02-26T05:11:09;100820.69;;;-1.68;80.34
31483;BME280;18103;52.246;8.052;2023-02-26T05:13:34;100812.16;;;-1.74;81.15
31483;BME280;18103;52.246;8.052;2023-02-26T05:16:00;100817.19;;;-1.66;80.49
31483;BME280;18103;52.246;8.052;2023-02-26T05:18:25;100819.91;;;-1.72;80.48
31483;BME280;18103;52.246;8.052;2023-02-26T05:20:52;100829.38;;;-1.73;80.20
31483;BME280;18103;52.246;8.052;2023-02-26T05:23:18;100833.78;;;-1.76;80.47
31483;BME280;18103;52.246;8.052;2023-02-26T05:25:44;100825.97;;;-1.73;80.48
31483;BME280;18103;52.246;8.052;2023-02-26T05:28:10;100837.34;;;-1.83;80.42
31483;BME280;18103;52.246;8.052;2023-02-26T05:30:35;100840.75;;;-1.80;80.69
31483;BME280;18103;52.246;8.052;2023-02-26T05:33:00;100843.34;;;-1.81;80.52
31483;BME280;18103;52.246;8.052;2023-02-26T05:35:26;100849.38;;;-1.81;80.76
31483;BME280;18103;52.246;8.052;2023-02-26T05:37:51;100853.91;;;-1.92;80.99
31483;BME280;18103;52.246;8.052;2023-02-26T05:40:17;100852.91;;;-1.85;80.75
31483;BME280;18103;52.246;8.052;2023-02-26T05:42:42;100860.72;;;-1.88;81.04
31483;BME280;18103;52.246;8.052;2023-02-26T05:45:08;100859.81;;;-1.85;80.23
31483;BME280;18103;52.246;8.052;2023-02-26T05:47:34;100858.06;;;-1.85;80.56
31483;BME280;18103;52.246;8.052;2023-02-26T05:50:00;100865.84;;;-1.85;80.72
31483;BME280;18103;52.246;8.052;2023-02-26T05:52:26;100864.13;;;-1.84;80.28
31483;BME280;18103;52.246;8.052;2023-02-26T05:54:52;100863.34;;;-1.90;80.40
31483;BME280;18103;52.246;8.052;2023-02-26T05:57:18;100872.91;;;-1.95;81.00
31483;BME280;18103;52.246;8.052;2023-02-26T05:59:43;100870.31;;;-1.93;81.00
31483;BME280;18103;52.246;8.052;2023-02-26T06:02:08;100879.06;;;-2.00;81.06
31483;BME280;18103;52.246;8.052;2023-02-26T06:04:34;100886.66;;;-1.91;81.04
31483;BME280;18103;52.246;8.052;2023-02-26T06:07:00;100892.81;;;-1.97;81.18
31483;BME280;18103;52.246;8.052;2023-02-26T06:09:26;100900.59;;;-1.98;80.69
31483;BME280;18103;52.246;8.052;2023-02-26T06:11:51;100908.41;;;-2.01;81.16
31483;BME280;18103;52.246;8.052;2023-02-26T06:14:16;100907.50;;;-2.00;81.15
31483;BME280;18103;52.246;8.052;2023-02-26T06:16:42;100911.03;;;-2.04;81.37
31483;BME280;18103;52.246;8.052;2023-02-26T06:19:07;100917.72;;;-1.93;80.80
31483;BME280;18103;52.246;8.052;2023-02-26T06:21:33;100917.00;;;-2.01;80.73
31483;BME280;18103;52.246;8.052;2023-02-26T06:23:58;100927.41;;;-2.04;81.20
31483;BME280;18103;52.246;8.052;2023-02-26T06:26:23;100930.84;;;-2.03;81.43
31483;BME280;18103;52.246;8.052;2023-02-26T06:28:49;100937.69;;;-1.99;81.26
31483;BME280;18103;52.246;8.052;2023-02-26T06:31:14;100937.75;;;-2.04;81.17
31483;BME280;18103;52.246;8.052;2023-02-26T06:33:39;100948.06;;;-2.01;81.26
31483;BME280;18103;52.246;8.052;2023-02-26T06:36:05;100945.44;;;-1.99;81.19
31483;BME280;18103;52.246;8.052;2023-02-26T06:38:30;100957.56;;;-2.03;81.35
31483;BME280;18103;52.246;8.052;2023-02-26T06:40:56;100960.09;;;-1.98;81.22
31483;BME280;18103;52.246;8.052;2023-02-26T06:43:21;100965.91;;;-1.85;81.20
31483;BME280;18103;52.246;8.052;2023-02-26T06:45:47;100967.59;;;-1.83;80.61
31483;BME280;18103;52.246;8.052;2023-02-26T06:48:12;100971.16;;;-1.90;80.94
31483;BME280;18103;52.246;8.052;2023-02-26T06:50:38;100976.34;;;-1.90;81.47
31483;BME280;18103;52.246;8.052;2023-02-26T06:53:03;100981.44;;;-1.85;81.58
31483;BME280;18103;52.246;8.052;2023-02-26T06:55:29;100986.56;;;-1.84;81.57
31483;BME280;18103;52.246;8.052;2023-02-26T06:57:55;100990.88;;;-1.83;81.67
31483;BME280;18103;52.246;8.052;2023-02-26T07:00:22;100989.84;;;-1.74;81.28
31483;BME280;18103;52.246;8.052;2023-02-26T07:02:49;100997.66;;;-1.76;81.40
31483;BME280;18103;52.246;8.052;2023-02-26T07:05:15;101002.56;;;-1.60;80.85
31483;BME280;18103;52.246;8.052;2023-02-26T07:07:40;101002.47;;;-1.56;81.87
31483;BME280;18103;52.246;8.052;2023-02-26T07:10:06;100999.75;;;-1.48;80.95
31483;BME280;18103;52.246;8.052;2023-02-26T07:12:32;101004.56;;;-1.28;80.79
31483;BME280;18103;52.246;8.052;2023-02-26T07:14:57;101005.31;;;-1.21;80.63
31483;BME280;18103;52.246;8.052;2023-02-26T07:17:23;101020.56;;;-1.06;79.97
31483;BME280;18103;52.246;8.052;2023-02-26T07:19:50;101015.06;;;-0.90;80.05
31483;BME280;18103;52.246;8.052;2023-02-26T07:22:17;101009.47;;;-0.70;79.83
31483;BME280;18103;52.246;8.052;2023-02-26T07:24:43;101020.56;;;-0.63;78.89
31483;BME280;18103;52.246;8.052;2023-02-26T07:27:09;101014.16;;;-0.47;78.83
31483;BME280;18103;52.246;8.052;2023-02-26T07:29:34;101021.53;;;-0.28;78.22
31483;BME280;18103;52.246;8.052;2023-02-26T07:32:00;101024.66;;;-0.12;78.19
31483;BME280;18103;52.246;8.052;2023-02-26T07:34:25;101030.19;;;0.08;77.58
31483;BME280;18103;52.246;8.052;2023-02-26T07:36:51;101034.31;;;0.19;77.57
31483;BME280;18103;52.246;8.052;2023-02-26T07:39:16;101041.66;;;0.36;77.29
31483;BME280;18103;52.246;8.052;2023-02-26T07:41:41;101039.66;;;0.47;76.54
31483;BME280;18103;52.246;8.052;2023-02-26T07:44:07;101041.69;;;0.68;76.00
31483;BME280;18103;52.246;8.052;2023-02-26T07:46:32;101042.06;;;0.88;75.24
31483;BME280;18103;52.246;8.052;2023-02-26T07:48:58;101042.09;;;0.86;74.04
31483;BME280;18103;52.246;8.052;2023-02-26T07:51:23;101048.38;;;1.10;74.69
31483;BME280;18103;52.246;8.052;2023-02-26T07:53:49;101050.78;;;1.18;73.79
31483;BME280;18103;52.246;8.052;2023-02-26T07:56:14;101054.84;;;1.27;73.90
31483;BME280;18103;52.246;8.052;2023-02-26T07:58:39;101053.44;;;1.46;72.61
31483;BME280;18103;52.246;8.052;2023-02-26T08:01:05;101062.72;;;1.55;74.19
31483;BME280;18103;52.246;8.052;2023-02-26T08:03:31;101060.56;;;1.69;72.96
31483;BME280;18103;52.246;8.052;2023-02-26T08:05:57;101072.66;;;1.70;73.47
31483;BME280;18103;52.246;8.052;2023-02-26T08:08:25;101074.13;;;1.81;73.83
31483;BME280;18103;52.246;8.052;2023-02-26T08:10:50;101072.78;;;1.96;73.32
31483;BME280;18103;52.246;8.052;2023-02-26T08:13:16;101077.69;;;2.05;73.38
31483;BME280;18103;52.246;8.052;2023-02-26T08:15:41;101076.28;;;2.23;72.15
31483;BME280;18103;52.246;8.052;2023-02-26T08:18:08;101078.53;;;2.34;72.21
31483;BME280;18103;52.246;8.052;2023-02-26T08:20:34;101078.34;;;2.40;71.47
31483;BME280;18103;52.246;8.052;2023-02-26T08:23:00;101080.53;;;2.52;70.76
31483;BME280;18103;52.246;8.052;2023-02-26T08:25:25;101089.47;;;2.45;70.78
31483;BME280;18103;52.246;8.052;2023-02-26T08:27:51;101086.06;;;2.68;70.76
31483;BME280;18103;52.246;8.052;2023-02-26T08:30:16;101097.81;;;2.82;70.50
31483;BME280;18103;52.246;8.052;2023-02-26T08:32:42;101097.22;;;2.73;71.38
31483;BME280;18103;52.246;8.052;2023-02-26T08:35:09;101097.03;;;2.78;70.75
31483;BME280;18103;52.246;8.052;2023-02-26T08:37:34;101109.03;;;2.84;70.97
31483;BME280;18103;52.246;8.052;2023-02-26T08:40:00;101107.59;;;2.75;71.05
31483;BME280;18103;52.246;8.052;2023-02-26T08:42:25;101114.47;;;3.03;70.63
31483;BME280;18103;52.246;8.052;2023-02-26T08:44:50;101104.41;;;3.17;69.87
31483;BME280;18103;52.246;8.052;2023-02-26T08:47:16;101112.75;;;3.27;70.16
31483;BME280;18103;52.246;8.052;2023-02-26T08:49:41;101115.47;;;3.24;69.00
31483;BME280;18103;52.246;8.052;2023-02-26T08:52:07;101118.44;;;3.38;68.85
31483;BME280;18103;52.246;8.052;2023-02-26T08:54:32;101119.25;;;3.40;68.26
31483;BME280;18103;52.246;8.052;2023-02-26T08:56:58;101117.22;;;3.49;69.09
31483;BME280;18103;52.246;8.052;2023-02-26T08:59:24;101125.13;;;3.69;68.12
31483;BME280;18103;52.246;8.052;2023-02-26T09:01:50;101124.03;;;3.53;68.54
31483;BME280;18103;52.246;8.052;2023-02-26T09:04:15;101128.22;;;3.57;67.36
31483;BME280;18103;52.246;8.052;2023-02-26T09:06:41;101134.91;;;3.40;68.68
31483;BME280;18103;52.246;8.052;2023-02-26T09:09:06;101138.94;;;3.49;68.68
31483;BME280;18103;52.246;8.052;2023-02-26T09:11:32;101143.19;;;3.52;68.19
31483;BME280;18103;52.246;8.052;2023-02-26T09:13:58;101147.00;;;3.67;67.79
31483;BME280;18103;52.246;8.052;2023-02-26T09:16:24;101152.38;;;3.86;66.07
31483;BME280;18103;52.246;8.052;2023-02-26T09:18:49;101155.28;;;4.02;65.51
31483;BME280;18103;52.246;8.052;2023-02-26T09:21:15;101158.88;;;3.75;67.43
31483;BME280;18103;52.246;8.052;2023-02-26T09:23:40;101166.34;;;4.08;66.33
31483;BME280;18103;52.246;8.052;2023-02-26T09:26:05;101168.94;;;4.08;66.18
31483;BME280;18103;52.246;8.052;2023-02-26T09:28:33;101171.34;;;4.15;66.47
31483;BME280;18103;52.246;8.052;2023-02-26T09:30:58;101174.63;;;4.20;65.30
31483;BME280;18103;52.246;8.052;2023-02-26T09:33:24;101173.00;;;3.93;66.69
31483;BME280;18103;52.246;8.052;2023-02-26T09:35:50;101180.38;;;4.28;64.55
31483;BME280;18103;52.246;8.052;2023-02-26T09:38:16;101177.09;;;4.47;64.66
31483;BME280;18103;52.246;8.052;2023-02-26T09:40:58;101179.44;;;4.53;63.51
31483;BME280;18103;52.246;8.052;2023-02-26T09:43:46;101182.72;;;4.36;64.84
31483;BME280;18103;52.246;8.052;2023-02-26T09:52:26;101200.41;;;4.51;64.02
31483;BME280;18103;52.246;8.052;2023-02-26T09:55:00;101199.38;;;4.33;62.36
31483;BME280;18103;52.246;8.052;2023-02-26T09:57:35;101202.34;;;4.46;61.79
31483;BME280;18103;52.246;8.052;2023-02-26T10:00:09;101204.38;;;4.39;62.78
31483;BME280;18103;52.246;8.052;2023-02-26T10:03:20;101196.34;;;4.44;62.26
31483;BME280;18103;52.246;8.052;2023-02-26T10:05:40;101199.03;;;4.65;61.16
31483;BME280;18103;52.246;8.052;2023-02-26T10:08:15;101203.25;;;4.67;61.41
31483;BME280;18103;52.246;8.052;2023-02-26T10:10:54;101208.19;;;4.75;61.89
31483;BME280;18103;52.246;8.052;2023-02-26T10:13:46;101213.91;;;4.85;61.47
31483;BME280;18103;52.246;8.052;2023-02-26T10:16:21;101216.84;;;4.55;62.48
31483;BME280;18103;52.246;8.052;2023-02-26T10:18:56;101219.63;;;4.72;60.84
31483;BME280;18103;52.246;8.052;2023-02-26T10:21:27;101226.81;;;4.67;61.40
31483;BME280;18103;52.246;8.052;2023-02-26T10:23:56;101222.66;;;4.84;61.77
31483;BME280;18103;52.246;8.052;2023-02-26T10:26:25;101220.38;;;4.76;61.85
31483;BME280;18103;52.246;8.052;2023-02-26T10:32:34;101227.97;;;4.82;60.21
31483;BME280;18103;52.246;8.052;2023-02-26T10:35:04;101235.88;;;4.80;59.88
31483;BME280;18103;52.246;8.052;2023-02-26T10:37:50;101229.38;;;4.69;59.42
31483;BME280;18103;52.246;8.052;2023-02-26T10:40:23;101228.75;;;4.84;59.66
31483;BME280;18103;52.246;8.052;2023-02-26T10:43:03;101231.06;;;4.92;59.71
31483;BME280;18103;52.246;8.052;2023-02-26T10:45:42;101244.13;;;5.14;60.62
31483;BME280;18103;52.246;8.052;2023-02-26T10:48:38;101237.25;;;5.11;59.80
31483;BME280;18103;52.246;8.052;2023-02-26T10:51:19;101237.56;;;5.24;61.51
31483;BME280;18103;52.246;8.052;2023-02-26T10:53:53;101245.34;;;5.26;60.47
31483;BME280;18103;52.246;8.052;2023-02-26T10:56:24;101248.19;;;5.21;58.69
31483;BME280;18103;52.246;8.052;2023-02-26T10:58:51;101250.66;;;5.24;59.59
31483;BME280;18103;52.246;8.052;2023-02-26T11:01:19;101244.00;;;5.38;59.42
31483;BME280;18103;52.246;8.052;2023-02-26T11:03:51;101244.41;;;5.70;60.58
31483;BME280;18103;52.246;8.052;2023-02-26T11:06:23;101245.69;;;5.80;57.48
31483;BME280;18103;52.246;8.052;2023-02-26T11:08:54;101244.34;;;5.90;58.59
31483;BME280;18103;52.246;8.052;2023-02-26T11:11:48;101250.09;;;6.19;61.26
31483;BME280;18103;52.246;8.052;2023-02-26T11:14:15;101246.69;;;6.36;61.14
31483;BME280;18103;52.246;8.052;2023-02-26T11:16:48;101254.31;;;6.42;58.35
31483;BME280;18103;52.246;8.052;2023-02-26T11:19:15;101246.97;;;6.49;58.23
31483;BME280;18103;52.246;8.052;2023-02-26T11:21:44;101245.78;;;6.56;58.34
31483;BME280;18103;52.246;8.052;2023-02-26T11:24:11;101246.63;;;6.76;54.78
31483;BME280;18103;52.246;8.052;2023-02-26T11:26:38;101255.47;;;6.73;53.94
31483;BME280;18103;52.246;8.052;2023-02-26T11:29:14;101249.59;;;6.68;56.10
31483;BME280;18103;52.246;8.052;2023-02-26T11:31:40;101231.53;;;6.62;52.77
31483;BME280;18103;52.246;8.052;2023-02-26T11:34:08;101249.50;;;6.70;56.29
31483;BME280;18103;52.246;8.052;2023-02-26T11:36:39;101252.16;;;6.50;53.37
31483;BME280;18103;52.246;8.052;2023-02-26T11:39:13;101249.84;;;6.81;57.18
31483;BME280;18103;52.246;8.052;2023-02-26T11:41:39;101253.66;;;6.93;55.90
31483;BME280;18103;52.246;8.052;2023-02-26T11:44:14;101247.84;;;6.49;54.07
31483;BME280;18103;52.246;8.052;2023-02-26T11:46:54;101259.59;;;6.41;54.14
31483;BME280;18103;52.246;8.052;2023-02-26T11:49:23;101250.50;;;6.10;53.99
31483;BME280;18103;52.246;8.052;2023-02-26T11:55:04;101246.56;;;6.58;53.29
31483;BME280;18103;52.246;8.052;2023-02-26T11:57:31;101254.63;;;6.34;56.09
31483;BME280;18103;52.246;8.052;2023-02-26T11:59:59;101251.25;;;6.32;55.72
31483;BME280;18103;52.246;8.052;2023-02-26T12:02:30;101259.81;;;6.17;56.34
31483;BME280;18103;52.246;8.052;2023-02-26T12:04:58;101252.06;;;6.14;54.10
31483;BME280;18103;52.246;8.052;2023-02-26T12:07:27;101259.44;;;6.06;55.31
31483;BME280;18103;52.246;8.052;2023-02-26T12:09:54;101243.66;;;6.07;56.37
31483;BME280;18103;52.246;8.052;2023-02-26T12:12:47;101253.81;;;6.34;54.70
31483;BME280;18103;52.246;8.052;2023-02-26T12:15:43;101257.47;;;6.49;56.58
31483;BME280;18103;52.246;8.052;2023-02-26T12:31:28;101257.97;;;6.57;53.06
31483;BME280;18103;52.246;8.052;2023-02-26T12:40:04;101252.38;;;7.01;53.85
31483;BME280;18103;52.246;8.052;2023-02-26T12:48:41;101256.03;;;7.51;52.58
31483;BME280;18103;52.246;8.052;2023-02-26T12:51:25;101248.59;;;7.07;49.91
31483;BME280;18103;52.246;8.052;2023-02-26T13:13:29;101261.09;;;8.05;51.75
31483;BME280;18103;52.246;8.052;2023-02-26T13:21:36;101252.84;;;7.96;47.55
31483;BME280;18103;52.246;8.052;2023-02-26T13:24:12;101256.22;;;8.31;50.19
31483;BME280;18103;52.246;8.052;2023-02-26T13:26:40;101254.00;;;8.23;48.54
31483;BME280;18103;52.246;8.052;2023-02-26T13:29:15;101237.00;;;8.47;46.55
31483;BME280;18103;52.246;8.052;2023-02-26T13:32:23;101255.09;;;8.19;49.20
31483;BME280;18103;52.246;8.052;2023-02-26T13:34:58;101253.00;;;8.26;46.71
31483;BME280;18103;52.246;8.052;2023-02-26T13:37:28;101228.81;;;8.83;48.97
31483;BME280;18103;52.246;8.052;2023-02-26T13:40:29;101232.59;;;8.47;46.48
31483;BME280;18103;52.246;8.052;2023-02-26T13:53:32;101225.41;;;8.97;47.32
31483;BME280;18103;52.246;8.052;2023-02-26T14:19:38;101229.97;;;8.14;49.23
31483;BME280;18103;52.246;8.052;2023-02-26T14:22:45;101224.97;;;8.09;49.05
31483;BME280;18103;52.246;8.052;2023-02-26T14:27:43;101233.25;;;7.85;48.54
31483;BME280;18103;52.246;8.052;2023-02-26T14:35:24;101239.00;;;7.59;47.85
31483;BME280;18103;52.246;8.052;2023-02-26T14:38:19;101242.63;;;7.39;48.35
31483;BME280;18103;52.246;8.052;2023-02-26T14:40:58;101233.84;;;7.22;48.87
31483;BME280;18103;52.246;8.052;2023-02-26T14:43:41;101244.34;;;7.40;50.27
31483;BME280;18103;52.246;8.052;2023-02-26T14:46:08;101240.72;;;7.42;50.17
31483;BME280;18103;52.246;8.052;2023-02-26T14:48:36;101245.75;;;7.29;51.52
31483;BME280;18103;52.246;8.052;2023-02-26T14:51:28;101241.88;;;7.19;51.64
31483;BME280;18103;52.246;8.052;2023-02-26T14:54:08;101244.97;;;7.27;51.75
31483;BME280;18103;52.246;8.052;2023-02-26T15:01:42;101249.00;;;6.80;50.15
31483;BME280;18103;52.246;8.052;2023-02-26T15:07:20;101250.25;;;6.54;50.76
31483;BME280;18103;52.246;8.052;2023-02-26T15:10:12;101251.38;;;6.29;50.87
31483;BME280;18103;52.246;8.052;2023-02-26T15:18:34;101254.19;;;6.06;51.57
31483;BME280;18103;52.246;8.052;2023-02-26T15:24:04;101248.25;;;5.81;53.55
31483;BME280;18103;52.246;8.052;2023-02-26T15:26:34;101257.16;;;5.77;53.74
31483;BME280;18103;52.246;8.052;2023-02-26T15:29:04;101252.50;;;5.84;53.95
31483;BME280;18103;52.246;8.052;2023-02-26T15:31:34;101253.91;;;5.72;54.56
31483;BME280;18103;52.246;8.052;2023-02-26T15:34:01;101256.53;;;5.72;53.78
31483;BME280;18103;52.246;8.052;2023-02-26T15:36:29;101258.69;;;5.42;55.58
31483;BME280;18103;52.246;8.052;2023-02-26T15:39:00;101262.16;;;5.63;53.64
31483;BME280;18103;52.246;8.052;2023-02-26T15:41:27;101267.84;;;5.52;53.83
31483;BME280;18103;52.246;8.052;2023-02-26T15:44:01;101269.75;;;5.48;53.54
31483;BME280;18103;52.246;8.052;2023-02-26T15:46:32;101273.22;;;5.49;54.61
31483;BME280;18103;52.246;8.052;2023-02-26T15:49:16;101271.22;;;5.34;55.49
31483;BME280;18103;52.246;8.052;2023-02-26T15:51:44;101278.81;;;5.19;55.45
31483;BME280;18103;52.246;8.052;2023-02-26T15:54:17;101281.53;;;5.16;56.13
31483;BME280;18103;52.246;8.052;2023-02-26T15:56:44;101288.75;;;5.31;56.48
31483;BME280;18103;52.246;8.052;2023-02-26T15:59:23;101279.38;;;5.05;56.68
31483;BME280;18103;52.246;8.052;2023-02-26T16:01:50;101284.03;;;5.19;56.62